sensor_id;sensor_type;location;lat;lon;timestamp;P1;durP1;ratioP1;P2;durP2;ratioP2
5363;SDS011;2705;41.410;2.160;2023-03-01T00:00:12;2.63;;;2.40;;
5363;SDS011;2705;41.410;2.160;2023-03-01T00:02:42;7.63;;;3.30;;
5363;SDS011;2705;41.410;2.160;2023-03-01T00:05:12;2.80;;;2.57;;
5363;SDS011;2705;41.410;2.160;2023-03-01T00:07:42;4.17;;;3.67;;
5363;SDS011;2705;41.410;2.160;2023-03-01T00:10:12;8.43;;;3.17;;
5363;SDS011;2705;41.410;2.160;2023-03-01T00:12:42;4.30;;;2.97;;
5363;SDS011;2705;41.410;2.160;2023-03-01T00:15:11;5.30;;;3.40;;
5363;SDS011;2705;41.410;2.160;2023-03-01T00:17:41;3.97;;;2.80;;
5363;SDS011;2705;41.410;2.160;2023-03-01T00:20:10;5.13;;;3.20;;
5363;SDS011;2705;41.410;2.160;2023-03-01T00:22:40;3.43;;;3.13;;
5363;SDS011;2705;41.410;2.160;2023-03-01T00:25:10;3.87;;;2.93;;
5363;SDS011;2705;41.410;2.160;2023-03-01T00:27:40;3.40;;;3.10;;
5363;SDS011;2705;41.410;2.160;2023-03-01T00:30:10;4.50;;;2.80;;
5363;SDS011;2705;41.410;2.160;2023-03-01T00:32:39;3.33;;;3.00;;
5363;SDS011;2705;41.410;2.160;2023-03-01T00:35:09;3.67;;;3.07;;
5363;SDS011;2705;41.410;2.160;2023-03-01T00:37:38;6.70;;;2.77;;
5363;SDS011;2705;41.410;2.160;2023-03-01T00:40:08;3.17;;;2.77;;
5363;SDS011;2705;41.410;2.160;2023-03-01T00:42:39;3.63;;;3.33;;
5363;SDS011;2705;41.410;2.160;2023-03-01T00:45:09;3.60;;;3.10;;
5363;SDS011;2705;41.410;2.160;2023-03-01T00:47:40;6.13;;;3.50;;
5363;SDS011;2705;41.410;2.160;2023-03-01T00:50:10;3.47;;;2.60;;
5363;SDS011;2705;41.410;2.160;2023-03-01T00:52:40;4.73;;;3.17;;
5363;SDS011;2705;41.410;2.160;2023-03-01T00:55:09;3.20;;;2.90;;
5363;SDS011;2705;41.410;2.160;2023-03-01T00:57:41;5.20;;;3.00;;
5363;SDS011;2705;41.410;2.160;2023-03-01T01:00:10;5.03;;;3.50;;
5363;SDS011;2705;41.410;2.160;2023-03-01T01:02:40;4.70;;;3.03;;
5363;SDS011;2705;41.410;2.160;2023-03-01T01:05:09;2.77;;;2.57;;
5363;SDS011;2705;41.410;2.160;2023-03-01T01:07:39;4.63;;;3.33;;
5363;SDS011;2705;41.410;2.160;2023-03-01T01:10:09;7.50;;;2.87;;
5363;SDS011;2705;41.410;2.160;2023-03-01T01:12:45;5.80;;;3.07;;
5363;SDS011;2705;41.410;2.160;2023-03-01T01:15:16;3.23;;;2.93;;
5363;SDS011;2705;41.410;2.160;2023-03-01T01:17:45;4.23;;;3.30;;
5363;SDS011;2705;41.410;2.160;2023-03-01T01:20:14;6.40;;;3.17;;
5363;SDS011;2705;41.410;2.160;2023-03-01T01:22:44;2.03;;;1.93;;
5363;SDS011;2705;41.410;2.160;2023-03-01T01:25:13;4.87;;;3.77;;
5363;SDS011;2705;41.410;2.160;2023-03-01T01:27:42;10.90;;;3.60;;
5363;SDS011;2705;41.410;2.160;2023-03-01T01:30:13;3.10;;;2.80;;
5363;SDS011;2705;41.410;2.160;2023-03-01T01:32:43;6.83;;;3.20;;
5363;SDS011;2705;41.410;2.160;2023-03-01T01:35:12;7.17;;;3.20;;
5363;SDS011;2705;41.410;2.160;2023-03-01T01:37:41;3.67;;;3.30;;
5363;SDS011;2705;41.410;2.160;2023-03-01T01:40:11;3.40;;;3.10;;
5363;SDS011;2705;41.410;2.160;2023-03-01T01:42:41;9.70;;;3.50;;
5363;SDS011;2705;41.410;2.160;2023-03-01T01:45:28;6.13;;;3.13;;
5363;SDS011;2705;41.410;2.160;2023-03-01T01:47:59;3.33;;;3.03;;
5363;SDS011;2705;41.410;2.160;2023-03-01T01:50:29;3.37;;;2.90;;
5363;SDS011;2705;41.410;2.160;2023-03-01T01:53:06;5.07;;;3.10;;
5363;SDS011;2705;41.410;2.160;2023-03-01T01:55:37;5.23;;;3.40;;
5363;SDS011;2705;41.410;2.160;2023-03-01T01:58:08;11.70;;;3.27;;
5363;SDS011;2705;41.410;2.160;2023-03-01T02:00:40;2.80;;;2.60;;
5363;SDS011;2705;41.410;2.160;2023-03-01T02:03:10;4.00;;;3.07;;
5363;SDS011;2705;41.410;2.160;2023-03-01T02:05:42;9.53;;;3.23;;
5363;SDS011;2705;41.410;2.160;2023-03-01T02:08:16;3.23;;;2.93;;
5363;SDS011;2705;41.410;2.160;2023-03-01T02:10:46;3.50;;;2.73;;
5363;SDS011;2705;41.410;2.160;2023-03-01T02:13:17;5.53;;;3.40;;
5363;SDS011;2705;41.410;2.160;2023-03-01T02:15:48;4.50;;;3.20;;
5363;SDS011;2705;41.410;2.160;2023-03-01T02:18:20;3.50;;;3.13;;
5363;SDS011;2705;41.410;2.160;2023-03-01T02:20:54;4.03;;;2.90;;
5363;SDS011;2705;41.410;2.160;2023-03-01T02:23:25;4.17;;;3.50;;
5363;SDS011;2705;41.410;2.160;2023-03-01T02:25:56;4.40;;;2.93;;
5363;SDS011;2705;41.410;2.160;2023-03-01T02:28:30;9.10;;;3.27;;
5363;SDS011;2705;41.410;2.160;2023-03-01T02:31:00;4.40;;;3.20;;
5363;SDS011;2705;41.410;2.160;2023-03-01T02:33:48;3.30;;;2.90;;
5363;SDS011;2705;41.410;2.160;2023-03-01T02:36:18;3.20;;;2.90;;
5363;SDS011;2705;41.410;2.160;2023-03-01T02:38:48;4.53;;;3.27;;
5363;SDS011;2705;41.410;2.160;2023-03-01T02:41:19;3.40;;;3.00;;
5363;SDS011;2705;41.410;2.160;2023-03-01T02:43:50;4.20;;;3.10;;
5363;SDS011;2705;41.410;2.160;2023-03-01T02:46:20;4.93;;;3.40;;
5363;SDS011;2705;41.410;2.160;2023-03-01T02:48:50;3.63;;;3.33;;
5363;SDS011;2705;41.410;2.160;2023-03-01T02:51:26;5.40;;;3.40;;
5363;SDS011;2705;41.410;2.160;2023-03-01T02:53:59;3.50;;;3.20;;
5363;SDS011;2705;41.410;2.160;2023-03-01T02:56:30;3.50;;;2.90;;
5363;SDS011;2705;41.410;2.160;2023-03-01T02:59:01;4.07;;;3.30;;
5363;SDS011;2705;41.410;2.160;2023-03-01T03:01:31;3.87;;;3.27;;
5363;SDS011;2705;41.410;2.160;2023-03-01T03:04:07;6.87;;;3.10;;
5363;SDS011;2705;41.410;2.160;2023-03-01T03:06:37;5.90;;;2.93;;
5363;SDS011;2705;41.410;2.160;2023-03-01T03:09:06;5.10;;;2.97;;
5363;SDS011;2705;41.410;2.160;2023-03-01T03:11:36;4.33;;;3.30;;
5363;SDS011;2705;41.410;2.160;2023-03-01T03:14:07;4.53;;;3.23;;
5363;SDS011;2705;41.410;2.160;2023-03-01T03:16:41;3.50;;;3.20;;
5363;SDS011;2705;41.410;2.160;2023-03-01T03:19:11;3.80;;;2.80;;
5363;SDS011;2705;41.410;2.160;2023-03-01T03:21:41;7.10;;;2.77;;
5363;SDS011;2705;41.410;2.160;2023-03-01T03:24:10;5.17;;;3.33;;
5363;SDS011;2705;41.410;2.160;2023-03-01T03:26:39;5.00;;;3.23;;
5363;SDS011;2705;41.410;2.160;2023-03-01T03:29:10;7.83;;;3.70;;
5363;SDS011;2705;41.410;2.160;2023-03-01T03:31:39;4.13;;;3.03;;
5363;SDS011;2705;41.410;2.160;2023-03-01T03:34:09;6.33;;;3.20;;
5363;SDS011;2705;41.410;2.160;2023-03-01T03:36:45;3.70;;;3.03;;
5363;SDS011;2705;41.410;2.160;2023-03-01T03:39:14;6.17;;;3.90;;
5363;SDS011;2705;41.410;2.160;2023-03-01T03:41:46;3.30;;;3.00;;
5363;SDS011;2705;41.410;2.160;2023-03-01T03:44:17;3.60;;;2.63;;
5363;SDS011;2705;41.410;2.160;2023-03-01T03:46:46;3.40;;;2.73;;
5363;SDS011;2705;41.410;2.160;2023-03-01T03:49:15;4.00;;;3.30;;
5363;SDS011;2705;41.410;2.160;2023-03-01T03:51:45;3.13;;;2.93;;
5363;SDS011;2705;41.410;2.160;2023-03-01T03:54:14;4.73;;;3.20;;
5363;SDS011;2705;41.410;2.160;2023-03-01T03:56:44;5.60;;;3.40;;
5363;SDS011;2705;41.410;2.160;2023-03-01T03:59:13;4.40;;;3.33;;
5363;SDS011;2705;41.410;2.160;2023-03-01T04:01:44;3.63;;;3.00;;
5363;SDS011;2705;41.410;2.160;2023-03-01T04:04:13;4.37;;;3.63;;
5363;SDS011;2705;41.410;2.160;2023-03-01T04:06:45;4.03;;;3.20;;
5363;SDS011;2705;41.410;2.160;2023-03-01T04:09:15;3.30;;;3.00;;
5363;SDS011;2705;41.410;2.160;2023-03-01T04:11:44;5.07;;;3.07;;
5363;SDS011;2705;41.410;2.160;2023-03-01T04:14:13;7.90;;;3.73;;
5363;SDS011;2705;41.410;2.160;2023-03-01T04:16:44;3.20;;;2.90;;
5363;SDS011;2705;41.410;2.160;2023-03-01T04:19:14;3.60;;;3.30;;
5363;SDS011;2705;41.410;2.160;2023-03-01T04:21:44;3.67;;;3.07;;
5363;SDS011;2705;41.410;2.160;2023-03-01T04:24:13;4.00;;;2.97;;
5363;SDS011;2705;41.410;2.160;2023-03-01T04:26:42;3.37;;;3.07;;
5363;SDS011;2705;41.410;2.160;2023-03-01T04:29:11;3.83;;;3.17;;
5363;SDS011;2705;41.410;2.160;2023-03-01T04:31:41;5.93;;;3.80;;
5363;SDS011;2705;41.410;2.160;2023-03-01T04:34:12;5.50;;;3.27;;
5363;SDS011;2705;41.410;2.160;2023-03-01T04:36:41;3.67;;;3.27;;
5363;SDS011;2705;41.410;2.160;2023-03-01T04:39:10;5.53;;;2.93;;
5363;SDS011;2705;41.410;2.160;2023-03-01T04:41:40;9.57;;;3.40;;
5363;SDS011;2705;41.410;2.160;2023-03-01T04:44:10;10.23;;;3.60;;
5363;SDS011;2705;41.410;2.160;2023-03-01T04:46:39;3.73;;;3.00;;
5363;SDS011;2705;41.410;2.160;2023-03-01T04:49:09;8.07;;;3.30;;
5363;SDS011;2705;41.410;2.160;2023-03-01T04:51:39;4.13;;;3.00;;
5363;SDS011;2705;41.410;2.160;2023-03-01T04:54:09;3.40;;;3.10;;
5363;SDS011;2705;41.410;2.160;2023-03-01T04:56:38;3.40;;;3.10;;
5363;SDS011;2705;41.410;2.160;2023-03-01T04:59:07;4.37;;;3.53;;
5363;SDS011;2705;41.410;2.160;2023-03-01T05:01:36;5.10;;;3.27;;
5363;SDS011;2705;41.410;2.160;2023-03-01T05:04:06;5.50;;;2.90;;
5363;SDS011;2705;41.410;2.160;2023-03-01T05:06:41;5.23;;;3.50;;
5363;SDS011;2705;41.410;2.160;2023-03-01T05:09:11;3.70;;;3.40;;
5363;SDS011;2705;41.410;2.160;2023-03-01T05:11:40;5.23;;;3.70;;
5363;SDS011;2705;41.410;2.160;2023-03-01T05:14:11;6.70;;;3.83;;
5363;SDS011;2705;41.410;2.160;2023-03-01T05:16:40;3.37;;;3.00;;
5363;SDS011;2705;41.410;2.160;2023-03-01T05:19:10;6.50;;;3.60;;
5363;SDS011;2705;41.410;2.160;2023-03-01T05:21:44;9.20;;;3.63;;
5363;SDS011;2705;41.410;2.160;2023-03-01T05:24:27;9.67;;;3.40;;
5363;SDS011;2705;41.410;2.160;2023-03-01T05:26:57;3.47;;;3.17;;
5363;SDS011;2705;41.410;2.160;2023-03-01T05:29:27;3.53;;;3.20;;
5363;SDS011;2705;41.410;2.160;2023-03-01T05:31:57;3.87;;;3.47;;
5363;SDS011;2705;41.410;2.160;2023-03-01T05:34:29;4.03;;;3.33;;
5363;SDS011;2705;41.410;2.160;2023-03-01T05:37:00;6.53;;;3.30;;
5363;SDS011;2705;41.410;2.160;2023-03-01T05:39:29;4.20;;;3.10;;
5363;SDS011;2705;41.410;2.160;2023-03-01T05:41:59;5.17;;;3.80;;
5363;SDS011;2705;41.410;2.160;2023-03-01T05:44:29;4.70;;;3.50;;
5363;SDS011;2705;41.410;2.160;2023-03-01T05:46:58;4.63;;;3.40;;
5363;SDS011;2705;41.410;2.160;2023-03-01T05:49:28;7.50;;;4.00;;
5363;SDS011;2705;41.410;2.160;2023-03-01T05:51:57;4.10;;;3.70;;
5363;SDS011;2705;41.410;2.160;2023-03-01T05:54:28;6.70;;;3.47;;
5363;SDS011;2705;41.410;2.160;2023-03-01T05:56:57;3.90;;;3.60;;
5363;SDS011;2705;41.410;2.160;2023-03-01T05:59:27;4.00;;;3.60;;
5363;SDS011;2705;41.410;2.160;2023-03-01T06:01:56;6.20;;;4.10;;
5363;SDS011;2705;41.410;2.160;2023-03-01T06:04:25;4.10;;;3.70;;
5363;SDS011;2705;41.410;2.160;2023-03-01T06:06:55;5.13;;;3.80;;
5363;SDS011;2705;41.410;2.160;2023-03-01T06:09:24;3.63;;;3.33;;
5363;SDS011;2705;41.410;2.160;2023-03-01T06:11:55;3.57;;;3.27;;
5363;SDS011;2705;41.410;2.160;2023-03-01T06:14:25;6.53;;;3.97;;
5363;SDS011;2705;41.410;2.160;2023-03-01T06:16:54;5.63;;;4.00;;
5363;SDS011;2705;41.410;2.160;2023-03-01T06:19:24;3.90;;;3.50;;
5363;SDS011;2705;41.410;2.160;2023-03-01T06:21:53;6.80;;;3.83;;
5363;SDS011;2705;41.410;2.160;2023-03-01T06:24:22;10.80;;;4.20;;
5363;SDS011;2705;41.410;2.160;2023-03-01T06:26:52;7.40;;;3.80;;
5363;SDS011;2705;41.410;2.160;2023-03-01T06:29:24;16.40;;;4.80;;
5363;SDS011;2705;41.410;2.160;2023-03-01T06:31:53;6.27;;;3.90;;
5363;SDS011;2705;41.410;2.160;2023-03-01T06:34:22;4.57;;;3.90;;
5363;SDS011;2705;41.410;2.160;2023-03-01T06:36:51;5.17;;;3.57;;
5363;SDS011;2705;41.410;2.160;2023-03-01T06:39:21;4.50;;;3.60;;
5363;SDS011;2705;41.410;2.160;2023-03-01T06:41:51;4.00;;;3.60;;
5363;SDS011;2705;41.410;2.160;2023-03-01T06:44:20;4.57;;;3.60;;
5363;SDS011;2705;41.410;2.160;2023-03-01T06:46:52;4.40;;;4.00;;
5363;SDS011;2705;41.410;2.160;2023-03-01T06:49:21;4.93;;;3.53;;
5363;SDS011;2705;41.410;2.160;2023-03-01T06:51:50;4.00;;;3.50;;
5363;SDS011;2705;41.410;2.160;2023-03-01T06:54:20;4.93;;;4.07;;
5363;SDS011;2705;41.410;2.160;2023-03-01T06:56:49;11.30;;;3.83;;
5363;SDS011;2705;41.410;2.160;2023-03-01T06:59:19;4.17;;;3.80;;
5363;SDS011;2705;41.410;2.160;2023-03-01T07:01:48;5.50;;;4.90;;
5363;SDS011;2705;41.410;2.160;2023-03-01T07:04:19;3.83;;;3.20;;
5363;SDS011;2705;41.410;2.160;2023-03-01T07:06:48;5.07;;;4.27;;
5363;SDS011;2705;41.410;2.160;2023-03-01T07:09:22;9.40;;;4.13;;
5363;SDS011;2705;41.410;2.160;2023-03-01T07:11:51;6.97;;;4.27;;
5363;SDS011;2705;41.410;2.160;2023-03-01T07:14:21;4.67;;;4.10;;
5363;SDS011;2705;41.410;2.160;2023-03-01T07:16:51;9.20;;;4.00;;
5363;SDS011;2705;41.410;2.160;2023-03-01T07:19:22;5.77;;;3.97;;
5363;SDS011;2705;41.410;2.160;2023-03-01T07:21:51;3.67;;;3.23;;
5363;SDS011;2705;41.410;2.160;2023-03-01T07:24:22;6.43;;;4.70;;
5363;SDS011;2705;41.410;2.160;2023-03-01T07:26:52;5.27;;;3.90;;
5363;SDS011;2705;41.410;2.160;2023-03-01T07:29:22;5.10;;;3.83;;
5363;SDS011;2705;41.410;2.160;2023-03-01T07:31:51;5.10;;;3.53;;
5363;SDS011;2705;41.410;2.160;2023-03-01T07:34:22;4.70;;;3.93;;
5363;SDS011;2705;41.410;2.160;2023-03-01T07:36:51;6.00;;;3.30;;
5363;SDS011;2705;41.410;2.160;2023-03-01T07:39:20;4.50;;;3.60;;
5363;SDS011;2705;41.410;2.160;2023-03-01T07:41:51;6.77;;;4.13;;
5363;SDS011;2705;41.410;2.160;2023-03-01T07:44:21;5.17;;;3.53;;
5363;SDS011;2705;41.410;2.160;2023-03-01T07:46:50;6.07;;;3.70;;
5363;SDS011;2705;41.410;2.160;2023-03-01T07:49:24;4.27;;;3.40;;
5363;SDS011;2705;41.410;2.160;2023-03-01T07:51:54;7.27;;;4.50;;
5363;SDS011;2705;41.410;2.160;2023-03-01T07:54:24;9.80;;;4.17;;
5363;SDS011;2705;41.410;2.160;2023-03-01T07:56:53;12.87;;;5.07;;
5363;SDS011;2705;41.410;2.160;2023-03-01T07:59:22;10.33;;;4.40;;
5363;SDS011;2705;41.410;2.160;2023-03-01T08:01:56;3.77;;;3.43;;
5363;SDS011;2705;41.410;2.160;2023-03-01T08:04:27;6.23;;;3.87;;
5363;SDS011;2705;41.410;2.160;2023-03-01T08:06:56;6.70;;;4.40;;
5363;SDS011;2705;41.410;2.160;2023-03-01T08:09:26;6.93;;;4.30;;
5363;SDS011;2705;41.410;2.160;2023-03-01T08:11:56;7.77;;;4.57;;
5363;SDS011;2705;41.410;2.160;2023-03-01T08:14:26;5.40;;;4.20;;
5363;SDS011;2705;41.410;2.160;2023-03-01T08:16:56;6.83;;;4.53;;
5363;SDS011;2705;41.410;2.160;2023-03-01T08:19:26;5.33;;;4.17;;
5363;SDS011;2705;41.410;2.160;2023-03-01T08:21:56;5.40;;;4.40;;
5363;SDS011;2705;41.410;2.160;2023-03-01T08:24:26;5.10;;;3.70;;
5363;SDS011;2705;41.410;2.160;2023-03-01T08:26:55;5.80;;;4.03;;
5363;SDS011;2705;41.410;2.160;2023-03-01T08:29:25;5.37;;;4.70;;
5363;SDS011;2705;41.410;2.160;2023-03-01T08:31:54;5.03;;;4.20;;
5363;SDS011;2705;41.410;2.160;2023-03-01T08:34:23;9.13;;;3.97;;
5363;SDS011;2705;41.410;2.160;2023-03-01T08:36:54;7.73;;;4.40;;
5363;SDS011;2705;41.410;2.160;2023-03-01T08:39:24;11.13;;;4.57;;
5363;SDS011;2705;41.410;2.160;2023-03-01T08:41:53;7.40;;;4.23;;
5363;SDS011;2705;41.410;2.160;2023-03-01T08:44:22;6.43;;;4.23;;
5363;SDS011;2705;41.410;2.160;2023-03-01T08:46:52;17.23;;;3.63;;
5363;SDS011;2705;41.410;2.160;2023-03-01T08:49:22;6.43;;;4.50;;
5363;SDS011;2705;41.410;2.160;2023-03-01T08:51:53;7.50;;;4.53;;
5363;SDS011;2705;41.410;2.160;2023-03-01T08:54:23;8.53;;;4.70;;
5363;SDS011;2705;41.410;2.160;2023-03-01T08:56:52;6.20;;;4.20;;
5363;SDS011;2705;41.410;2.160;2023-03-01T08:59:21;8.37;;;4.67;;
5363;SDS011;2705;41.410;2.160;2023-03-01T09:01:51;8.07;;;5.20;;
5363;SDS011;2705;41.410;2.160;2023-03-01T09:04:20;6.50;;;4.93;;
5363;SDS011;2705;41.410;2.160;2023-03-01T09:06:49;10.07;;;5.20;;
5363;SDS011;2705;41.410;2.160;2023-03-01T09:09:20;8.60;;;5.00;;
5363;SDS011;2705;41.410;2.160;2023-03-01T09:11:50;8.10;;;4.60;;
5363;SDS011;2705;41.410;2.160;2023-03-01T09:14:19;8.57;;;4.97;;
5363;SDS011;2705;41.410;2.160;2023-03-01T09:16:48;5.17;;;4.67;;
5363;SDS011;2705;41.410;2.160;2023-03-01T09:19:18;6.67;;;5.20;;
5363;SDS011;2705;41.410;2.160;2023-03-01T09:21:47;6.30;;;5.40;;
5363;SDS011;2705;41.410;2.160;2023-03-01T09:24:22;10.37;;;7.07;;
5363;SDS011;2705;41.410;2.160;2023-03-01T09:26:55;9.07;;;6.43;;
5363;SDS011;2705;41.410;2.160;2023-03-01T09:29:25;8.20;;;5.17;;
5363;SDS011;2705;41.410;2.160;2023-03-01T09:31:54;10.27;;;5.70;;
5363;SDS011;2705;41.410;2.160;2023-03-01T09:34:24;8.20;;;5.60;;
5363;SDS011;2705;41.410;2.160;2023-03-01T09:36:53;14.63;;;7.57;;
5363;SDS011;2705;41.410;2.160;2023-03-01T09:39:25;12.30;;;6.70;;
5363;SDS011;2705;41.410;2.160;2023-03-01T09:41:57;6.83;;;5.20;;
5363;SDS011;2705;41.410;2.160;2023-03-01T09:44:31;14.20;;;6.00;;
5363;SDS011;2705;41.410;2.160;2023-03-01T09:47:03;7.67;;;5.40;;
5363;SDS011;2705;41.410;2.160;2023-03-01T09:49:33;11.43;;;5.70;;
5363;SDS011;2705;41.410;2.160;2023-03-01T09:52:06;13.10;;;5.80;;
5363;SDS011;2705;41.410;2.160;2023-03-01T09:54:42;14.37;;;6.03;;
5363;SDS011;2705;41.410;2.160;2023-03-01T09:57:15;9.20;;;5.57;;
5363;SDS011;2705;41.410;2.160;2023-03-01T09:59:49;9.00;;;5.70;;
5363;SDS011;2705;41.410;2.160;2023-03-01T10:02:24;8.80;;;6.00;;
5363;SDS011;2705;41.410;2.160;2023-03-01T10:04:57;10.63;;;7.13;;
5363;SDS011;2705;41.410;2.160;2023-03-01T10:07:36;9.67;;;6.07;;
5363;SDS011;2705;41.410;2.160;2023-03-01T10:10:16;10.40;;;7.23;;
5363;SDS011;2705;41.410;2.160;2023-03-01T10:12:50;8.73;;;5.83;;
5363;SDS011;2705;41.410;2.160;2023-03-01T10:15:20;17.73;;;7.50;;
5363;SDS011;2705;41.410;2.160;2023-03-01T10:17:51;15.47;;;8.50;;
5363;SDS011;2705;41.410;2.160;2023-03-01T10:20:23;12.33;;;7.00;;
5363;SDS011;2705;41.410;2.160;2023-03-01T10:22:52;9.03;;;6.70;;
5363;SDS011;2705;41.410;2.160;2023-03-01T10:25:31;9.53;;;5.73;;
5363;SDS011;2705;41.410;2.160;2023-03-01T10:28:10;9.77;;;6.13;;
5363;SDS011;2705;41.410;2.160;2023-03-01T10:30:41;7.93;;;5.70;;
5363;SDS011;2705;41.410;2.160;2023-03-01T10:33:13;11.43;;;6.83;;
5363;SDS011;2705;41.410;2.160;2023-03-01T10:35:44;20.93;;;7.70;;
5363;SDS011;2705;41.410;2.160;2023-03-01T10:38:14;18.53;;;7.20;;
5363;SDS011;2705;41.410;2.160;2023-03-01T10:40:52;9.67;;;6.27;;
5363;SDS011;2705;41.410;2.160;2023-03-01T10:43:24;12.97;;;7.20;;
5363;SDS011;2705;41.410;2.160;2023-03-01T10:45:54;9.30;;;6.87;;
5363;SDS011;2705;41.410;2.160;2023-03-01T10:48:24;13.40;;;6.87;;
5363;SDS011;2705;41.410;2.160;2023-03-01T10:51:04;8.00;;;5.40;;
5363;SDS011;2705;41.410;2.160;2023-03-01T10:53:34;17.10;;;10.10;;
5363;SDS011;2705;41.410;2.160;2023-03-01T10:56:07;9.13;;;4.30;;
5363;SDS011;2705;41.410;2.160;2023-03-01T10:58:38;8.20;;;4.07;;
5363;SDS011;2705;41.410;2.160;2023-03-01T11:04:03;6.13;;;4.83;;
5363;SDS011;2705;41.410;2.160;2023-03-01T11:06:33;10.87;;;4.17;;
5363;SDS011;2705;41.410;2.160;2023-03-01T11:09:13;6.83;;;3.60;;
5363;SDS011;2705;41.410;2.160;2023-03-01T11:11:44;7.60;;;3.80;;
5363;SDS011;2705;41.410;2.160;2023-03-01T11:14:15;6.00;;;4.00;;
5363;SDS011;2705;41.410;2.160;2023-03-01T11:16:59;6.33;;;4.07;;
5363;SDS011;2705;41.410;2.160;2023-03-01T11:19:29;5.97;;;3.30;;
5363;SDS011;2705;41.410;2.160;2023-03-01T11:22:01;9.90;;;5.13;;
5363;SDS011;2705;41.410;2.160;2023-03-01T11:24:33;6.90;;;3.87;;
5363;SDS011;2705;41.410;2.160;2023-03-01T11:27:06;5.60;;;4.20;;
5363;SDS011;2705;41.410;2.160;2023-03-01T11:29:40;8.53;;;3.73;;
5363;SDS011;2705;41.410;2.160;2023-03-01T11:32:15;5.90;;;2.90;;
5363;SDS011;2705;41.410;2.160;2023-03-01T11:34:46;8.93;;;4.00;;
5363;SDS011;2705;41.410;2.160;2023-03-01T11:37:20;9.57;;;4.60;;
5363;SDS011;2705;41.410;2.160;2023-03-01T11:39:54;5.67;;;3.73;;
5363;SDS011;2705;41.410;2.160;2023-03-01T11:42:27;7.07;;;3.87;;
5363;SDS011;2705;41.410;2.160;2023-03-01T11:44:58;10.97;;;4.53;;
5363;SDS011;2705;41.410;2.160;2023-03-01T11:47:32;11.10;;;5.57;;
5363;SDS011;2705;41.410;2.160;2023-03-01T11:50:06;5.80;;;4.07;;
5363;SDS011;2705;41.410;2.160;2023-03-01T11:52:41;7.70;;;4.47;;
5363;SDS011;2705;41.410;2.160;2023-03-01T11:55:23;7.50;;;4.87;;
5363;SDS011;2705;41.410;2.160;2023-03-01T11:58:00;6.97;;;4.37;;
5363;SDS011;2705;41.410;2.160;2023-03-01T12:03:23;5.53;;;4.33;;
5363;SDS011;2705;41.410;2.160;2023-03-01T12:05:58;6.13;;;3.93;;
5363;SDS011;2705;41.410;2.160;2023-03-01T12:08:32;10.93;;;4.50;;
5363;SDS011;2705;41.410;2.160;2023-03-01T12:11:05;9.33;;;4.50;;
5363;SDS011;2705;41.410;2.160;2023-03-01T12:16:32;36.17;;;5.17;;
5363;SDS011;2705;41.410;2.160;2023-03-01T12:19:21;8.20;;;4.90;;
5363;SDS011;2705;41.410;2.160;2023-03-01T12:22:06;4.47;;;3.30;;
5363;SDS011;2705;41.410;2.160;2023-03-01T12:24:46;5.90;;;3.37;;
5363;SDS011;2705;41.410;2.160;2023-03-01T12:27:22;5.83;;;3.60;;
5363;SDS011;2705;41.410;2.160;2023-03-01T12:29:54;5.00;;;3.33;;
5363;SDS011;2705;41.410;2.160;2023-03-01T12:32:30;7.00;;;3.93;;
5363;SDS011;2705;41.410;2.160;2023-03-01T12:35:11;11.20;;;4.10;;
5363;SDS011;2705;41.410;2.160;2023-03-01T12:37:47;11.60;;;3.77;;
5363;SDS011;2705;41.410;2.160;2023-03-01T12:40:27;4.27;;;3.33;;
5363;SDS011;2705;41.410;2.160;2023-03-01T12:43:06;5.53;;;3.80;;
5363;SDS011;2705;41.410;2.160;2023-03-01T12:45:44;5.70;;;3.40;;
5363;SDS011;2705;41.410;2.160;2023-03-01T12:48:23;7.20;;;4.10;;
5363;SDS011;2705;41.410;2.160;2023-03-01T12:50:53;7.10;;;4.50;;
5363;SDS011;2705;41.410;2.160;2023-03-01T12:53:23;5.60;;;3.90;;
5363;SDS011;2705;41.410;2.160;2023-03-01T12:55:53;12.30;;;7.07;;
5363;SDS011;2705;41.410;2.160;2023-03-01T12:58:24;3.93;;;3.63;;
5363;SDS011;2705;41.410;2.160;2023-03-01T13:01:16;6.40;;;3.50;;
5363;SDS011;2705;41.410;2.160;2023-03-01T13:06:41;4.07;;;3.50;;
5363;SDS011;2705;41.410;2.160;2023-03-01T13:09:17;10.40;;;3.93;;
5363;SDS011;2705;41.410;2.160;2023-03-01T13:11:50;7.33;;;4.07;;
5363;SDS011;2705;41.410;2.160;2023-03-01T13:14:35;6.73;;;4.57;;
5363;SDS011;2705;41.410;2.160;2023-03-01T13:17:07;10.33;;;3.73;;
5363;SDS011;2705;41.410;2.160;2023-03-01T13:19:56;10.50;;;4.93;;
5363;SDS011;2705;41.410;2.160;2023-03-01T13:22:28;4.90;;;3.50;;
5363;SDS011;2705;41.410;2.160;2023-03-01T13:25:02;6.67;;;3.67;;
5363;SDS011;2705;41.410;2.160;2023-03-01T13:27:33;6.70;;;3.90;;
5363;SDS011;2705;41.410;2.160;2023-03-01T13:30:03;12.03;;;3.57;;
5363;SDS011;2705;41.410;2.160;2023-03-01T13:32:34;4.80;;;3.90;;
5363;SDS011;2705;41.410;2.160;2023-03-01T13:38:06;9.20;;;5.10;;
5363;SDS011;2705;41.410;2.160;2023-03-01T13:40:58;13.20;;;4.30;;
5363;SDS011;2705;41.410;2.160;2023-03-01T13:43:28;7.37;;;3.80;;
5363;SDS011;2705;41.410;2.160;2023-03-01T13:45:58;5.33;;;3.90;;
5363;SDS011;2705;41.410;2.160;2023-03-01T13:48:29;13.03;;;4.43;;
5363;SDS011;2705;41.410;2.160;2023-03-01T13:51:00;7.23;;;4.47;;
5363;SDS011;2705;41.410;2.160;2023-03-01T13:53:31;11.93;;;4.67;;
5363;SDS011;2705;41.410;2.160;2023-03-01T13:56:07;9.47;;;4.50;;
5363;SDS011;2705;41.410;2.160;2023-03-01T13:58:47;10.70;;;4.97;;
5363;SDS011;2705;41.410;2.160;2023-03-01T14:01:22;10.53;;;4.43;;
5363;SDS011;2705;41.410;2.160;2023-03-01T14:03:52;8.70;;;4.20;;
5363;SDS011;2705;41.410;2.160;2023-03-01T14:06:22;5.97;;;4.07;;
5363;SDS011;2705;41.410;2.160;2023-03-01T14:08:59;7.70;;;3.97;;
5363;SDS011;2705;41.410;2.160;2023-03-01T14:14:25;9.23;;;4.50;;
5363;SDS011;2705;41.410;2.160;2023-03-01T14:17:00;9.03;;;4.47;;
5363;SDS011;2705;41.410;2.160;2023-03-01T14:19:35;9.30;;;5.50;;
5363;SDS011;2705;41.410;2.160;2023-03-01T14:22:10;13.13;;;4.77;;
5363;SDS011;2705;41.410;2.160;2023-03-01T14:24:44;12.03;;;5.10;;
5363;SDS011;2705;41.410;2.160;2023-03-01T14:27:16;7.40;;;5.13;;
5363;SDS011;2705;41.410;2.160;2023-03-01T14:29:55;8.47;;;5.20;;
5363;SDS011;2705;41.410;2.160;2023-03-01T14:32:25;12.80;;;5.13;;
5363;SDS011;2705;41.410;2.160;2023-03-01T14:34:55;7.43;;;4.87;;
5363;SDS011;2705;41.410;2.160;2023-03-01T14:37:25;8.70;;;5.93;;
5363;SDS011;2705;41.410;2.160;2023-03-01T14:39:55;7.50;;;5.70;;
5363;SDS011;2705;41.410;2.160;2023-03-01T14:42:25;9.27;;;5.30;;
5363;SDS011;2705;41.410;2.160;2023-03-01T14:44:57;8.23;;;5.43;;
5363;SDS011;2705;41.410;2.160;2023-03-01T14:47:27;10.23;;;6.23;;
5363;SDS011;2705;41.410;2.160;2023-03-01T14:49:58;12.20;;;6.63;;
5363;SDS011;2705;41.410;2.160;2023-03-01T14:52:31;9.43;;;5.53;;
5363;SDS011;2705;41.410;2.160;2023-03-01T14:55:04;8.63;;;5.50;;
5363;SDS011;2705;41.410;2.160;2023-03-01T14:57:34;7.63;;;5.50;;
5363;SDS011;2705;41.410;2.160;2023-03-01T15:00:06;6.30;;;5.20;;
5363;SDS011;2705;41.410;2.160;2023-03-01T15:02:35;8.50;;;5.60;;
5363;SDS011;2705;41.410;2.160;2023-03-01T15:05:06;9.57;;;5.93;;
5363;SDS011;2705;41.410;2.160;2023-03-01T15:07:38;9.60;;;6.23;;
5363;SDS011;2705;41.410;2.160;2023-03-01T15:10:14;11.27;;;6.40;;
5363;SDS011;2705;41.410;2.160;2023-03-01T15:12:44;17.70;;;7.00;;
5363;SDS011;2705;41.410;2.160;2023-03-01T15:15:32;13.80;;;6.10;;
5363;SDS011;2705;41.410;2.160;2023-03-01T15:18:03;16.80;;;6.80;;
5363;SDS011;2705;41.410;2.160;2023-03-01T15:20:34;8.33;;;6.10;;
5363;SDS011;2705;41.410;2.160;2023-03-01T15:23:03;15.77;;;6.30;;
5363;SDS011;2705;41.410;2.160;2023-03-01T15:25:33;8.57;;;5.73;;
5363;SDS011;2705;41.410;2.160;2023-03-01T15:28:03;10.97;;;6.40;;
5363;SDS011;2705;41.410;2.160;2023-03-01T15:30:34;14.23;;;5.53;;
5363;SDS011;2705;41.410;2.160;2023-03-01T15:33:18;8.67;;;5.63;;
5363;SDS011;2705;41.410;2.160;2023-03-01T15:35:49;7.57;;;4.90;;
5363;SDS011;2705;41.410;2.160;2023-03-01T15:38:31;11.77;;;7.07;;
5363;SDS011;2705;41.410;2.160;2023-03-01T15:41:01;8.90;;;5.20;;
5363;SDS011;2705;41.410;2.160;2023-03-01T15:43:38;11.73;;;6.10;;
5363;SDS011;2705;41.410;2.160;2023-03-01T15:46:20;8.17;;;5.10;;
5363;SDS011;2705;41.410;2.160;2023-03-01T15:48:52;8.23;;;5.17;;
5363;SDS011;2705;41.410;2.160;2023-03-01T15:51:27;13.83;;;6.10;;
5363;SDS011;2705;41.410;2.160;2023-03-01T15:53:58;9.27;;;6.30;;
5363;SDS011;2705;41.410;2.160;2023-03-01T15:56:28;10.20;;;5.40;;